Time;durP1;ratioP1;P1;durP2;ratioP2;P2;SDS_P1;SDS_P2;PMS_P1;PMS_P2;Temp;Humidity;BMP_temperature;BMP_pressure;BME280_temperature;BME280_humidity;BME280_pressure;Samples;Min_cycle;Max_cycle;Signal;HPM_P1;HPM_P2
2023/05/05 00:01:07;;;;;;;9.87;9.27;;;17.70;22.20;;;;;;5072447;28;20424;-76
2023/05/05 00:03:34;;;;;;;10.73;10.13;;;17.80;22.30;;;;;;5071618;28;20946;-75
2023/05/05 00:05:59;;;;;;;10.17;9.60;;;17.70;22.20;;;;;;5053029;28;20500;-75
2023/05/05 00:08:25;;;;;;;10.53;9.83;;;17.80;22.30;;;;;;5073624;28;20445;-76
2023/05/05 00:10:52;;;;;;;10.63;9.73;;;17.70;22.20;;;;;;5073563;28;20176;-75
2023/05/05 00:13:19;;;;;;;11.20;10.23;;;17.80;22.30;;;;;;5070302;28;20210;-74
2023/05/05 00:15:46;;;;;;;10.73;10.13;;;17.70;22.10;;;;;;5072278;28;20414;-74
2023/05/05 00:18:14;;;;;;;10.40;9.70;;;17.80;22.30;;;;;;5073723;28;20468;-76
2023/05/05 00:20:40;;;;;;;10.03;9.43;;;17.70;22.20;;;;;;5072435;28;20414;-75
2023/05/05 00:23:05;;;;;;;9.97;9.37;;;17.80;22.50;;;;;;5072112;28;20433;-75
2023/05/05 00:25:31;;;;;;;9.30;8.80;;;17.70;22.60;;;;;;5070704;28;20601;-75
2023/05/05 00:27:56;;;;;;;10.13;9.53;;;17.70;22.70;;;;;;5070034;28;20229;-74
2023/05/05 00:30:23;;;;;;;11.43;10.60;;;17.70;22.80;;;;;;5069426;28;20175;-75
2023/05/05 00:32:49;;;;;;;10.07;9.40;;;17.70;23.10;;;;;;5069906;28;20198;-74
2023/05/05 00:35:15;;;;;;;10.73;10.03;;;17.70;23.10;;;;;;5070248;28;20406;-75
2023/05/05 00:37:41;;;;;;;10.57;9.77;;;17.60;23.20;;;;;;5070399;28;20966;-76
2023/05/05 00:40:07;;;;;;;11.77;11.03;;;17.60;23.10;;;;;;5071411;28;20409;-75
2023/05/05 00:42:44;;;;;;;12.10;11.30;;;17.60;23.10;;;;;;5067141;28;20248;-76
2023/05/05 00:45:11;;;;;;;12.13;11.33;;;17.60;23.20;;;;;;5052119;28;20417;-76
2023/05/05 00:47:37;;;;;;;11.07;10.23;;;17.60;23.30;;;;;;5072280;28;20500;-75
2023/05/05 00:50:06;;;;;;;10.90;10.20;;;17.60;23.40;;;;;;5070594;28;20417;-76
2023/05/05 00:52:32;;;;;;;11.60;10.47;;;17.60;23.50;;;;;;5070168;28;20433;-76
2023/05/05 00:54:58;;;;;;;12.40;11.60;;;17.60;23.60;;;;;;5068186;28;20425;-76
2023/05/05 00:57:24;;;;;;;12.00;11.10;;;17.60;23.80;;;;;;5068133;28;20464;-75
2023/05/05 00:59:50;;;;;;;11.80;11.10;;;17.50;23.80;;;;;;5069833;28;20463;-76
2023/05/05 01:02:16;;;;;;;11.87;11.07;;;17.50;24.00;;;;;;5068819;28;21133;-76
2023/05/05 01:04:41;;;;;;;11.37;10.77;;;17.50;24.10;;;;;;5069805;28;20233;-76
2023/05/05 01:07:24;;;;;;;12.07;11.17;;;17.50;24.40;;;;;;5069002;28;20235;-76
2023/05/05 01:10:01;;;;;;;11.17;10.47;;;17.40;24.10;;;;;;5069006;28;20171;-76
2023/05/05 01:12:43;;;;;;;12.70;11.67;;;17.40;24.40;;;;;;5048622;28;20612;-76
2023/05/05 01:15:44;;;;;;;11.73;10.93;;;17.40;24.40;;;;;;5071086;28;20449;-76
2023/05/05 01:18:27;;;;;;;11.10;10.60;;;17.40;24.50;;;;;;5056025;28;20468;-75
2023/05/05 01:21:14;;;;;;;11.03;10.40;;;17.40;24.50;;;;;;5049178;28;20409;-76
2023/05/05 01:23:42;;;;;;;12.60;11.90;;;17.40;24.70;;;;;;5069892;28;20666;-76
2023/05/05 01:26:41;;;;;;;11.53;10.77;;;17.40;25.00;;;;;;5070625;28;20398;-75
2023/05/05 01:29:25;;;;;;;12.50;11.80;;;17.40;24.90;;;;;;5067596;28;20486;-76
2023/05/05 01:32:02;;;;;;;12.70;11.80;;;17.30;25.10;;;;;;5067051;28;20474;-75
2023/05/05 01:34:51;;;;;;;10.40;9.80;;;17.30;25.20;;;;;;5069968;28;20414;-75
2023/05/05 01:37:21;;;;;;;11.87;11.07;;;17.30;25.30;;;;;;5069752;28;20515;-75
2023/05/05 01:39:53;;;;;;;10.73;10.13;;;17.30;25.40;;;;;;5069855;28;20904;-74
2023/05/05 01:42:21;;;;;;;11.53;10.53;;;17.30;25.50;;;;;;5068395;28;20496;-75
2023/05/05 01:44:47;;;;;;;12.37;11.60;;;17.30;25.60;;;;;;5050367;28;20785;-74
2023/05/05 01:47:18;;;;;;;10.60;10.10;;;17.20;25.70;;;;;;5052909;28;20417;-75
2023/05/05 01:49:46;;;;;;;11.00;10.40;;;17.20;25.60;;;;;;5052379;28;20410;-75
2023/05/05 01:52:14;;;;;;;11.57;10.93;;;17.20;25.70;;;;;;5068060;28;20798;-75
2023/05/05 01:54:40;;;;;;;12.43;11.73;;;17.20;25.90;;;;;;5068852;28;20807;-75
2023/05/05 01:57:08;;;;;;;12.90;12.20;;;17.20;26.10;;;;;;5070167;28;20453;-74
2023/05/05 01:59:35;;;;;;;12.00;11.30;;;17.20;26.10;;;;;;5050775;28;20410;-75
2023/05/05 02:02:02;;;;;;;12.07;11.47;;;17.10;26.10;;;;;;5068749;28;20962;-75
2023/05/05 02:04:30;;;;;;;12.37;11.57;;;17.10;26.20;;;;;;5069413;28;20406;-76
2023/05/05 02:06:58;;;;;;;12.43;11.33;;;17.10;26.20;;;;;;5068647;28;20410;-75
2023/05/05 02:09:27;;;;;;;12.30;11.60;;;17.10;26.30;;;;;;5065424;28;20535;-76
2023/05/05 02:11:54;;;;;;;11.47;10.77;;;17.10;26.40;;;;;;5067303;28;20512;-76
2023/05/05 02:14:21;;;;;;;12.93;12.33;;;17.00;26.40;;;;;;5072409;28;20402;-76
2023/05/05 02:16:47;;;;;;;10.77;10.20;;;17.10;26.50;;;;;;5072182;28;20445;-77
2023/05/05 02:19:14;;;;;;;13.13;12.43;;;17.10;26.60;;;;;;5075181;28;20406;-75
2023/05/05 02:21:40;;;;;;;12.40;11.70;;;17.10;26.70;;;;;;5070164;28;20490;-75
2023/05/05 02:24:07;;;;;;;11.70;11.10;;;17.00;26.70;;;;;;5071892;28;20412;-75
2023/05/05 02:26:37;;;;;;;12.60;12.00;;;17.10;26.70;;;;;;5071987;28;20398;-73
2023/05/05 02:29:08;;;;;;;13.00;12.20;;;17.10;27.20;;;;;;5072272;28;20484;-76
2023/05/05 02:31:40;;;;;;;12.67;11.87;;;17.10;26.70;;;;;;5051237;28;20472;-76
2023/05/05 02:34:07;;;;;;;11.90;11.20;;;17.10;27.20;;;;;;5071933;28;20420;-75
2023/05/05 02:36:38;;;;;;;13.00;12.20;;;17.00;26.80;;;;;;5071749;28;20405;-76
2023/05/05 02:39:11;;;;;;;11.43;10.70;;;17.00;26.90;;;;;;5073322;28;20401;-76
2023/05/05 02:41:38;;;;;;;13.10;12.47;;;17.00;27.10;;;;;;5073154;28;20405;-75
2023/05/05 02:44:05;;;;;;;13.23;12.43;;;17.00;27.00;;;;;;5072236;28;20406;-76
2023/05/05 02:46:31;;;;;;;12.37;11.50;;;17.00;27.00;;;;;;5073435;28;20797;-75
2023/05/05 02:48:58;;;;;;;12.27;11.67;;;17.00;27.10;;;;;;5072453;28;20443;-75
2023/05/05 02:51:24;;;;;;;12.83;12.10;;;17.00;27.30;;;;;;5068451;28;20198;-75
2023/05/05 02:53:51;;;;;;;12.33;11.53;;;17.00;27.30;;;;;;5071194;28;20437;-76
2023/05/05 02:56:28;;;;;;;12.40;11.33;;;16.90;27.50;;;;;;5055255;28;20172;-74
2023/05/05 02:59:03;;;;;;;12.47;11.57;;;16.90;27.50;;;;;;5071222;28;21575;-76
2023/05/05 03:01:55;;;;;;;12.40;11.77;;;16.90;27.50;;;;;;5070226;28;20443;-76
2023/05/05 03:04:47;;;;;;;12.70;11.87;;;16.90;27.90;;;;;;5073398;28;20408;-74
2023/05/05 03:07:38;;;;;;;12.57;11.97;;;16.90;27.90;;;;;;5073918;28;20432;-74
2023/05/05 03:10:10;;;;;;;13.60;12.77;;;16.90;27.90;;;;;;5070659;28;20423;-74
2023/05/05 03:12:51;;;;;;;13.77;12.70;;;16.90;27.90;;;;;;5069413;28;20453;-75
2023/05/05 03:15:18;;;;;;;13.00;12.23;;;16.90;28.40;;;;;;5069984;28;20416;-74
2023/05/05 03:17:45;;;;;;;13.30;12.40;;;16.90;27.90;;;;;;5054236;28;20896;-76
2023/05/05 03:20:13;;;;;;;12.80;12.10;;;16.90;27.90;;;;;;5069745;28;20406;-75
2023/05/05 03:22:38;;;;;;;11.67;11.00;;;16.90;27.90;;;;;;5072169;28;20453;-76
2023/05/05 03:25:05;;;;;;;11.20;10.70;;;16.90;27.90;;;;;;5072500;28;20437;-75
2023/05/05 03:27:30;;;;;;;11.50;10.80;;;17.00;27.90;;;;;;5072741;28;20171;-76
2023/05/05 03:29:56;;;;;;;12.40;11.70;;;17.00;27.90;;;;;;5072422;28;20463;-76
2023/05/05 03:32:22;;;;;;;11.13;10.53;;;17.10;27.80;;;;;;5071553;28;20711;-76
2023/05/05 03:34:48;;;;;;;11.40;10.87;;;17.10;28.10;;;;;;5072581;28;20194;-75
2023/05/05 03:37:14;;;;;;;10.37;9.77;;;17.10;27.40;;;;;;5056484;28;20544;-74
2023/05/05 03:39:39;;;;;;;10.43;9.93;;;17.20;27.50;;;;;;5074501;28;20299;-76
2023/05/05 03:42:05;;;;;;;11.57;11.07;;;17.20;27.40;;;;;;5073416;28;20233;-76
2023/05/05 03:44:30;;;;;;;11.37;10.70;;;17.20;27.50;;;;;;5075541;28;20178;-76
2023/05/05 03:46:56;;;;;;;11.87;11.10;;;17.20;27.70;;;;;;5074331;28;20182;-75
2023/05/05 03:49:21;;;;;;;11.20;10.70;;;17.20;27.90;;;;;;5074407;28;20178;-76
2023/05/05 03:51:47;;;;;;;11.87;11.17;;;17.20;28.10;;;;;;5073862;28;20202;-74
2023/05/05 03:54:12;;;;;;;12.47;11.80;;;17.20;28.10;;;;;;5056745;28;20219;-75
2023/05/05 03:56:38;;;;;;;11.90;11.30;;;17.30;28.20;;;;;;5075553;28;20211;-74
2023/05/05 03:59:04;;;;;;;12.37;11.77;;;17.30;28.10;;;;;;5074124;28;20171;-75
2023/05/05 04:01:30;;;;;;;11.30;10.60;;;17.30;28.10;;;;;;5074890;28;20179;-75
2023/05/05 04:03:56;;;;;;;10.60;10.10;;;17.30;28.10;;;;;;5075080;28;20179;-75
2023/05/05 04:06:22;;;;;;;13.10;12.50;;;17.30;28.70;;;;;;5073188;28;20408;-74
2023/05/05 04:08:47;;;;;;;11.77;11.27;;;17.40;28.20;;;;;;5074623;28;20787;-76
2023/05/05 04:11:13;;;;;;;11.87;11.07;;;17.40;28.20;;;;;;5073843;28;20255;-74
2023/05/05 04:13:38;;;;;;;12.63;11.90;;;17.40;28.20;;;;;;5074001;28;20641;-76
2023/05/05 04:16:04;;;;;;;11.90;11.10;;;17.50;28.30;;;;;;5074531;28;20262;-78
2023/05/05 04:18:30;;;;;;;10.60;10.10;;;17.50;28.30;;;;;;5073788;28;20199;-76
2023/05/05 04:20:55;;;;;;;10.70;10.30;;;17.50;28.30;;;;;;5072649;28;20668;-75
2023/05/05 04:23:21;;;;;;;10.93;10.47;;;17.50;28.30;;;;;;5055977;28;20344;-76
2023/05/05 04:25:47;;;;;;;11.03;10.63;;;17.50;28.40;;;;;;5074003;28;20237;-76
2023/05/05 04:28:12;;;;;;;11.57;11.07;;;17.50;28.50;;;;;;5074429;28;20194;-76
2023/05/05 04:30:38;;;;;;;12.10;11.60;;;17.50;28.60;;;;;;5074317;28;20176;-75
2023/05/05 04:33:04;;;;;;;11.53;10.70;;;17.50;28.70;;;;;;5055162;28;20244;-76
2023/05/05 04:35:29;;;;;;;11.97;11.30;;;17.50;28.70;;;;;;5074105;28;20175;-76
2023/05/05 04:37:55;;;;;;;11.87;11.37;;;17.50;28.70;;;;;;5074176;28;20195;-75
2023/05/05 04:40:20;;;;;;;10.90;10.43;;;17.50;28.90;;;;;;5074559;28;20210;-75
2023/05/05 04:42:46;;;;;;;11.67;11.07;;;17.40;28.90;;;;;;5072730;28;20192;-74
2023/05/05 04:45:12;;;;;;;11.90;11.40;;;17.50;28.90;;;;;;5074166;28;20186;-75
2023/05/05 04:47:40;;;;;;;11.83;11.30;;;17.50;28.70;;;;;;5056027;28;20266;-76
2023/05/05 04:50:06;;;;;;;11.07;10.57;;;17.60;28.70;;;;;;5074035;28;20695;-74
2023/05/05 04:52:32;;;;;;;12.00;11.30;;;17.60;28.30;;;;;;5073239;28;20433;-75
2023/05/05 04:54:58;;;;;;;11.10;10.60;;;17.70;28.40;;;;;;5073698;28;20424;-76
2023/05/05 04:57:24;;;;;;;11.57;10.67;;;17.70;28.40;;;;;;5056491;28;20218;-76
2023/05/05 04:59:49;;;;;;;12.17;11.10;;;17.70;28.40;;;;;;5074315;28;20496;-75
2023/05/05 05:02:15;;;;;;;11.67;10.90;;;17.70;28.40;;;;;;5073314;28;20586;-75
2023/05/05 05:04:41;;;;;;;10.77;10.30;;;17.70;28.40;;;;;;5073959;28;20175;-74
2023/05/05 05:07:06;;;;;;;11.90;11.00;;;17.70;28.70;;;;;;5074405;28;20179;-75
2023/05/05 05:09:32;;;;;;;11.23;10.33;;;17.60;28.60;;;;;;5073185;28;20175;-76
2023/05/05 05:12:01;;;;;;;10.50;9.90;;;17.70;28.90;;;;;;5072785;28;20190;-73
2023/05/05 05:14:28;;;;;;;10.00;9.60;;;17.60;28.50;;;;;;5073188;28;20186;-76
2023/05/05 05:16:53;;;;;;;10.20;9.70;;;17.70;28.90;;;;;;5073230;28;20449;-74
2023/05/05 05:19:19;;;;;;;10.57;9.97;;;17.70;28.40;;;;;;5073555;28;20415;-75
2023/05/05 05:21:44;;;;;;;10.97;10.00;;;17.80;28.50;;;;;;5073306;28;20230;-76
2023/05/05 05:24:10;;;;;;;10.93;10.40;;;17.80;28.50;;;;;;5071050;28;20187;-76
2023/05/05 05:26:36;;;;;;;9.40;9.00;;;17.80;28.50;;;;;;5073778;28;20171;-77
2023/05/05 05:29:03;;;;;;;10.60;10.10;;;17.80;28.50;;;;;;5056646;28;20184;-77
2023/05/05 05:31:29;;;;;;;11.30;10.80;;;17.80;28.50;;;;;;5073738;28;20907;-74
2023/05/05 05:33:55;;;;;;;11.73;11.00;;;17.90;28.80;;;;;;5073563;28;20416;-74
2023/05/05 05:36:20;;;;;;;14.47;13.23;;;17.80;28.50;;;;;;5073491;28;20657;-76
2023/05/05 05:38:46;;;;;;;13.53;12.50;;;17.80;28.50;;;;;;5075669;28;20463;-77
2023/05/05 05:41:11;;;;;;;14.37;12.80;;;17.80;28.50;;;;;;5073328;28;20175;-78
2023/05/05 05:43:37;;;;;;;13.07;12.27;;;17.80;28.50;;;;;;5056076;28;20187;-78
2023/05/05 05:46:03;;;;;;;14.60;13.60;;;17.80;28.50;;;;;;5074883;28;20163;-77
2023/05/05 05:48:28;;;;;;;12.80;11.90;;;17.80;28.50;;;;;;5060342;28;20180;-77
2023/05/05 05:50:55;;;;;;;12.90;12.00;;;17.90;29.10;;;;;;5061954;28;20187;-77
2023/05/05 05:53:20;;;;;;;13.37;12.37;;;17.80;29.20;;;;;;5059661;28;20221;-75
2023/05/05 05:55:46;;;;;;;10.30;9.80;;;17.80;28.50;;;;;;5060665;28;20433;-78
2023/05/05 05:58:12;;;;;;;9.47;8.87;;;17.90;29.20;;;;;;5082441;28;20207;-77
2023/05/05 06:00:37;;;;;;;10.10;9.50;;;17.90;29.30;;;;;;5081016;28;20732;-77
2023/05/05 06:03:03;;;;;;;10.60;9.67;;;18.00;28.90;;;;;;5080064;28;20203;-77
2023/05/05 06:05:28;;;;;;;9.47;8.97;;;18.00;29.20;;;;;;5062997;28;20191;-78
2023/05/05 06:07:54;;;;;;;10.80;10.03;;;18.00;28.80;;;;;;5078174;28;20186;-77
2023/05/05 06:10:19;;;;;;;9.23;8.70;;;18.10;29.10;;;;;;5063207;28;20179;-78
2023/05/05 06:12:45;;;;;;;9.83;9.43;;;18.10;29.20;;;;;;5081931;28;20206;-76
2023/05/05 06:15:10;;;;;;;8.80;8.37;;;18.10;29.80;;;;;;5076671;28;20649;-77
2023/05/05 06:17:36;;;;;;;9.57;9.07;;;18.20;30.00;;;;;;5078430;28;20221;-77
2023/05/05 06:20:02;;;;;;;12.83;11.50;;;18.30;29.30;;;;;;5077364;28;20551;-74
2023/05/05 06:22:27;;;;;;;11.37;10.60;;;18.30;28.80;;;;;;5078155;28;20195;-76
2023/05/05 06:24:53;;;;;;;12.47;11.53;;;18.20;28.80;;;;;;5079246;28;20198;-79
2023/05/05 06:27:18;;;;;;;10.87;10.07;;;18.30;28.80;;;;;;5080389;28;20546;-78
2023/05/05 06:29:44;;;;;;;10.67;10.07;;;18.30;29.30;;;;;;5064117;28;20708;-77
2023/05/05 06:32:11;;;;;;;10.60;9.90;;;18.30;29.00;;;;;;5056021;28;20188;-76
2023/05/05 06:34:37;;;;;;;10.40;9.80;;;18.40;29.50;;;;;;5039249;28;20531;-77
2023/05/05 06:37:02;;;;;;;9.87;9.17;;;18.40;28.90;;;;;;5056791;28;20454;-77
2023/05/05 06:39:28;;;;;;;9.53;9.03;;;18.50;29.00;;;;;;5078059;28;20179;-76
2023/05/05 06:41:53;;;;;;;11.20;10.60;;;18.60;29.10;;;;;;5059411;28;20222;-78
2023/05/05 06:44:19;;;;;;;10.97;10.37;;;18.60;29.00;;;;;;5077020;28;20187;-78
2023/05/05 06:46:44;;;;;;;11.00;10.50;;;18.70;29.00;;;;;;5078521;28;20175;-77
2023/05/05 06:49:10;;;;;;;10.87;10.37;;;18.70;28.80;;;;;;5060515;28;20179;-76
2023/05/05 06:51:36;;;;;;;9.90;9.40;;;18.70;28.70;;;;;;5073723;28;20619;-77
2023/05/05 06:54:01;;;;;;;9.47;9.07;;;18.80;29.10;;;;;;5075551;28;20679;-77
2023/05/05 06:56:27;;;;;;;10.23;9.63;;;18.80;29.10;;;;;;5057917;28;20668;-76
2023/05/05 06:58:52;;;;;;;9.70;9.30;;;18.80;29.40;;;;;;5056900;28;20211;-76
2023/05/05 07:01:18;;;;;;;9.30;8.83;;;18.90;28.80;;;;;;5075029;28;20183;-74
2023/05/05 07:03:43;;;;;;;9.37;8.97;;;18.90;28.40;;;;;;5075096;28;20252;-74
2023/05/05 07:06:09;;;;;;;10.50;10.00;;;18.90;28.70;;;;;;5074840;28;20199;-74
2023/05/05 07:08:35;;;;;;;11.07;10.47;;;18.90;28.30;;;;;;5063361;28;20191;-74
2023/05/05 07:11:00;;;;;;;10.20;9.80;;;18.90;28.30;;;;;;5074755;28;20201;-73
2023/05/05 07:13:26;;;;;;;8.83;8.53;;;18.90;28.50;;;;;;5073592;28;20676;-74
2023/05/05 07:15:52;;;;;;;9.77;9.37;;;19.00;28.20;;;;;;5072894;28;20630;-73
2023/05/05 07:18:19;;;;;;;9.40;9.00;;;19.00;28.10;;;;;;5067490;28;20202;-73
2023/05/05 07:20:45;;;;;;;9.97;9.57;;;19.00;27.90;;;;;;5070746;28;20911;-72
2023/05/05 07:23:10;;;;;;;9.87;9.47;;;18.90;28.30;;;;;;5055976;28;20512;-72
2023/05/05 07:25:36;;;;;;;10.10;9.60;;;18.90;28.60;;;;;;5075111;28;20476;-74
2023/05/05 07:28:02;;;;;;;8.77;8.40;;;18.90;29.00;;;;;;5074913;28;20261;-74
2023/05/05 07:30:28;;;;;;;9.20;8.80;;;18.90;29.20;;;;;;5074940;28;20159;-72
2023/05/05 07:32:53;;;;;;;9.50;9.10;;;18.80;28.80;;;;;;5073400;28;20449;-75
2023/05/05 07:35:19;;;;;;;11.03;9.97;;;18.80;28.70;;;;;;5055936;28;20278;-73
2023/05/05 07:37:45;;;;;;;9.63;9.17;;;18.90;28.80;;;;;;5073292;28;20218;-73
2023/05/05 07:40:11;;;;;;;9.90;9.50;;;18.90;28.40;;;;;;5055751;28;20533;-73
2023/05/05 07:42:36;;;;;;;10.10;9.67;;;18.80;28.40;;;;;;5073165;28;20195;-72
2023/05/05 07:45:03;;;;;;;10.70;10.10;;;18.80;28.40;;;;;;5074487;28;20487;-75
2023/05/05 07:47:29;;;;;;;10.43;9.93;;;18.80;28.50;;;;;;5072753;28;20183;-73
2023/05/05 07:49:54;;;;;;;9.40;9.10;;;18.80;28.60;;;;;;5073132;28;20417;-72
2023/05/05 07:52:20;;;;;;;10.97;10.47;;;18.80;29.10;;;;;;5071880;28;20555;-72
2023/05/05 07:54:47;;;;;;;11.13;10.53;;;18.70;29.10;;;;;;5072701;28;20950;-73
2023/05/05 07:57:12;;;;;;;11.07;10.20;;;18.80;30.00;;;;;;5072298;28;20191;-72
2023/05/05 07:59:42;;;;;;;11.37;10.70;;;18.70;30.60;;;;;;5071730;28;20965;-73
2023/05/05 08:02:08;;;;;;;11.27;10.87;;;18.70;30.60;;;;;;5053908;28;20211;-72
2023/05/05 08:04:34;;;;;;;12.30;11.33;;;18.70;30.70;;;;;;5054812;28;20476;-72
2023/05/05 08:06:59;;;;;;;13.10;12.33;;;18.60;32.30;;;;;;5054420;28;20841;-73
2023/05/05 08:09:25;;;;;;;12.13;11.20;;;18.60;34.40;;;;;;5072635;28;20665;-73
2023/05/05 08:11:50;;;;;;;12.10;11.60;;;18.60;35.80;;;;;;5071846;28;20194;-72
2023/05/05 08:14:16;;;;;;;12.07;11.37;;;18.50;36.80;;;;;;5072546;28;20182;-72
2023/05/05 08:16:42;;;;;;;12.90;12.17;;;18.50;37.90;;;;;;5072685;28;20179;-73
2023/05/05 08:19:07;;;;;;;13.33;12.60;;;18.40;37.10;;;;;;5072635;28;20187;-73
2023/05/05 08:21:33;;;;;;;12.10;11.23;;;18.40;38.70;;;;;;5071673;28;20254;-73
2023/05/05 08:23:59;;;;;;;13.23;12.60;;;18.40;38.90;;;;;;5072593;28;20704;-73
2023/05/05 08:26:25;;;;;;;12.60;12.00;;;18.30;39.20;;;;;;5072950;28;20243;-73
2023/05/05 08:28:54;;;;;;;13.50;12.47;;;18.30;39.40;;;;;;5072652;28;20211;-73
2023/05/05 08:31:19;;;;;;;11.63;11.07;;;18.30;39.20;;;;;;5071552;28;20421;-74
2023/05/05 08:33:45;;;;;;;12.13;11.60;;;18.30;39.30;;;;;;5054868;28;20424;-73
2023/05/05 08:36:11;;;;;;;12.13;11.60;;;18.30;39.80;;;;;;5072418;28;20290;-73
2023/05/05 08:38:36;;;;;;;12.93;12.33;;;18.20;39.80;;;;;;5072162;28;20568;-73
2023/05/05 08:41:02;;;;;;;13.13;12.43;;;18.20;40.60;;;;;;5071488;28;20410;-77
2023/05/05 08:43:28;;;;;;;12.67;11.70;;;18.20;40.60;;;;;;5054116;28;20691;-74
2023/05/05 08:45:55;;;;;;;13.90;13.17;;;18.20;40.90;;;;;;5071961;28;20402;-75
2023/05/05 08:48:24;;;;;;;13.80;13.10;;;18.20;41.50;;;;;;5072099;28;20201;-74
2023/05/05 08:50:58;;;;;;;13.07;12.47;;;18.20;42.90;;;;;;5073155;28;20439;-75
2023/05/05 08:53:45;;;;;;;12.67;11.80;;;18.20;42.50;;;;;;5072149;28;20821;-74
2023/05/05 08:56:13;;;;;;;13.03;12.17;;;18.20;38.70;;;;;;5072362;28;20899;-74
2023/05/05 08:58:40;;;;;;;13.17;12.37;;;18.20;38.70;;;;;;5072532;28;20515;-75
2023/05/05 09:01:06;;;;;;;13.50;12.70;;;18.20;38.50;;;;;;5054372;28;20420;-74
2023/05/05 09:03:32;;;;;;;12.50;12.00;;;18.20;38.60;;;;;;5071662;28;20498;-74
2023/05/05 09:05:58;;;;;;;11.97;11.37;;;18.30;39.50;;;;;;5073015;28;20412;-73
2023/05/05 09:08:24;;;;;;;12.77;12.07;;;18.30;38.80;;;;;;5072750;28;20891;-74
2023/05/05 09:10:50;;;;;;;12.27;11.57;;;18.30;38.80;;;;;;5073051;28;20174;-72
2023/05/05 09:13:16;;;;;;;11.30;10.90;;;18.30;37.60;;;;;;5073273;28;21102;-73
2023/05/05 09:15:42;;;;;;;12.03;11.53;;;18.30;38.10;;;;;;5072888;28;20405;-73
2023/05/05 09:18:08;;;;;;;12.47;11.90;;;18.40;38.00;;;;;;5072182;28;20285;-73
2023/05/05 09:20:35;;;;;;;10.93;10.43;;;18.40;37.90;;;;;;5072624;28;20144;-74
2023/05/05 09:23:12;;;;;;;13.03;12.33;;;18.40;36.90;;;;;;5067584;28;20511;-75
2023/05/05 09:25:39;;;;;;;11.73;11.23;;;18.40;37.70;;;;;;5072599;28;20421;-76
2023/05/05 09:28:13;;;;;;;12.33;11.83;;;18.50;38.30;;;;;;5054901;28;20413;-75
2023/05/05 09:30:40;;;;;;;11.33;10.80;;;18.50;37.20;;;;;;5054821;28;20398;-74
2023/05/05 09:33:05;;;;;;;14.47;13.67;;;18.60;38.00;;;;;;5054115;28;20838;-75
2023/05/05 09:35:53;;;;;;;13.60;12.60;;;18.60;39.10;;;;;;5054701;28;20445;-74
2023/05/05 09:38:19;;;;;;;16.97;15.20;;;18.70;38.40;;;;;;5052335;28;20719;-73
2023/05/05 09:40:50;;;;;;;14.73;13.73;;;18.70;37.60;;;;;;5052251;28;20509;-74
2023/05/05 09:43:18;;;;;;;11.50;11.00;;;18.70;38.40;;;;;;5034024;28;20444;-73
2023/05/05 09:45:44;;;;;;;12.73;11.70;;;18.70;37.40;;;;;;5051636;28;20407;-73
2023/05/05 09:48:29;;;;;;;13.43;12.83;;;18.80;37.90;;;;;;5034724;28;20430;-74
2023/05/05 09:50:56;;;;;;;12.70;11.90;;;19.00;36.30;;;;;;5052041;28;20537;-74
2023/05/05 09:53:23;;;;;;;10.60;10.10;;;19.20;35.20;;;;;;5071427;28;20476;-76
2023/05/05 09:55:56;;;;;;;12.70;11.90;;;19.30;32.90;;;;;;5054207;28;20410;-74
2023/05/05 09:58:30;;;;;;;13.00;12.33;;;19.30;31.60;;;;;;5072255;28;20502;-73
2023/05/05 10:00:57;;;;;;;10.30;9.90;;;19.30;31.20;;;;;;5072012;28;20411;-73
2023/05/05 10:03:23;;;;;;;10.47;10.07;;;19.40;29.90;;;;;;5053420;28;20774;-74
2023/05/05 10:05:50;;;;;;;10.37;9.97;;;19.40;28.20;;;;;;5072018;28;20429;-74
2023/05/05 10:08:17;;;;;;;11.17;10.60;;;19.40;28.00;;;;;;5053681;28;20410;-73
2023/05/05 10:11:05;;;;;;;10.97;10.27;;;19.50;28.90;;;;;;5072060;28;20402;-73
2023/05/05 10:13:35;;;;;;;10.20;9.80;;;19.40;28.30;;;;;;5051274;28;20441;-74
2023/05/05 10:16:07;;;;;;;11.07;10.67;;;19.40;27.60;;;;;;5034189;28;20820;-74
2023/05/05 10:18:33;;;;;;;10.70;10.30;;;19.40;27.80;;;;;;5052128;28;20553;-74
2023/05/05 10:21:00;;;;;;;10.80;10.30;;;19.40;28.70;;;;;;5051564;28;20494;-74
2023/05/05 10:23:40;;;;;;;9.63;9.33;;;19.30;28.50;;;;;;5069799;28;20444;-74
2023/05/05 10:26:09;;;;;;;10.00;9.53;;;19.30;28.10;;;;;;5071154;28;20412;-74
2023/05/05 10:28:44;;;;;;;10.30;9.90;;;19.30;28.40;;;;;;5070734;28;20429;-73
2023/05/05 10:31:16;;;;;;;9.90;9.50;;;19.30;28.70;;;;;;5051929;28;20784;-75
2023/05/05 10:34:08;;;;;;;10.80;10.40;;;19.30;28.50;;;;;;5072515;28;20434;-74
2023/05/05 10:36:36;;;;;;;10.60;10.20;;;19.30;29.50;;;;;;5072355;28;20433;-73
2023/05/05 10:39:05;;;;;;;10.00;9.60;;;19.20;29.50;;;;;;5073811;28;20551;-75
2023/05/05 10:41:32;;;;;;;10.33;9.70;;;19.20;29.40;;;;;;5073861;28;20770;-74
2023/05/05 10:43:58;;;;;;;9.47;9.17;;;19.20;29.50;;;;;;5074912;28;20416;-75
2023/05/05 10:46:27;;;;;;;11.10;10.60;;;19.20;29.40;;;;;;5074176;28;20401;-74
2023/05/05 10:48:56;;;;;;;10.50;10.00;;;19.20;29.40;;;;;;5074332;28;20563;-74
2023/05/05 10:51:45;;;;;;;10.67;10.17;;;19.20;30.60;;;;;;5073573;28;21026;-74
2023/05/05 10:54:31;;;;;;;10.60;10.20;;;19.20;31.00;;;;;;5054135;28;20553;-74
2023/05/05 10:57:01;;;;;;;9.50;9.20;;;19.20;30.80;;;;;;5065526;28;20426;-73
2023/05/05 10:59:36;;;;;;;10.90;10.50;;;19.20;31.80;;;;;;5075635;28;20776;-76
2023/05/05 11:02:34;;;;;;;10.60;10.10;;;19.20;31.00;;;;;;5074862;28;20448;-76
2023/05/05 11:05:08;;;;;;;10.40;10.00;;;19.20;32.90;;;;;;5037043;28;20687;-75
2023/05/05 11:07:35;;;;;;;10.53;10.13;;;19.10;32.40;;;;;;5075692;28;20405;-76
2023/05/05 11:10:06;;;;;;;9.77;9.37;;;19.10;33.70;;;;;;5058781;28;20409;-75
2023/05/05 11:12:52;;;;;;;10.10;9.70;;;19.10;33.20;;;;;;5076458;28;20448;-75
2023/05/05 11:15:27;;;;;;;9.90;9.40;;;19.00;33.00;;;;;;5075573;28;20426;-76
2023/05/05 11:17:56;;;;;;;9.93;9.63;;;19.10;32.60;;;;;;5075645;28;20460;-76
2023/05/05 11:20:51;;;;;;;11.60;10.90;;;19.10;32.50;;;;;;5075745;28;20796;-75
2023/05/05 11:23:19;;;;;;;11.87;11.07;;;19.20;32.40;;;;;;5064807;28;20485;-76
2023/05/05 11:25:45;;;;;;;9.97;9.50;;;19.20;32.20;;;;;;5059597;28;20470;-76
2023/05/05 11:28:20;;;;;;;10.27;9.63;;;19.30;29.50;;;;;;5077669;28;20471;-77
2023/05/05 11:30:55;;;;;;;10.57;9.87;;;19.40;29.50;;;;;;5077586;28;20438;-75
2023/05/05 11:33:27;;;;;;;10.50;10.10;;;19.60;28.70;;;;;;5057775;28;20437;-75
2023/05/05 11:35:57;;;;;;;11.07;10.57;;;19.60;28.20;;;;;;5059770;28;20574;-77
2023/05/05 11:38:36;;;;;;;10.73;10.13;;;19.70;28.10;;;;;;5077587;28;20548;-76
2023/05/05 11:41:12;;;;;;;11.30;10.80;;;19.80;27.90;;;;;;5078334;28;20390;-77
2023/05/05 11:43:40;;;;;;;10.40;10.00;;;19.90;27.60;;;;;;5078543;28;20900;-76
2023/05/05 11:46:14;;;;;;;10.50;10.00;;;19.90;28.00;;;;;;5056321;28;20418;-75
2023/05/05 11:48:51;;;;;;;9.50;8.80;;;20.00;27.50;;;;;;5057089;28;20832;-74
2023/05/05 11:51:17;;;;;;;9.87;9.37;;;20.00;27.60;;;;;;5076511;28;20488;-76
2023/05/05 11:53:48;;;;;;;9.87;9.47;;;20.00;27.50;;;;;;5078155;28;20476;-75
2023/05/05 11:56:19;;;;;;;9.10;8.60;;;20.00;27.40;;;;;;5060577;28;20444;-74
2023/05/05 11:58:45;;;;;;;8.83;8.53;;;20.00;26.80;;;;;;5074381;28;20453;-76
2023/05/05 12:01:14;;;;;;;10.07;9.57;;;20.00;26.90;;;;;;5073823;28;20414;-75
2023/05/05 12:03:40;;;;;;;10.33;9.70;;;20.00;27.00;;;;;;5074763;28;20433;-75
2023/05/05 12:06:07;;;;;;;9.50;9.10;;;20.10;26.60;;;;;;5056393;28;20793;-75
2023/05/05 12:08:36;;;;;;;11.20;10.70;;;20.20;26.90;;;;;;5074290;28;20254;-76
2023/05/05 12:11:07;;;;;;;10.70;10.10;;;20.40;26.70;;;;;;5074071;28;20410;-76
2023/05/05 12:13:33;;;;;;;10.53;10.07;;;20.50;26.60;;;;;;5074306;28;20440;-76
2023/05/05 12:16:13;;;;;;;10.93;10.23;;;20.50;25.90;;;;;;5072722;28;20417;-77
2023/05/05 12:18:39;;;;;;;10.17;9.77;;;20.40;26.00;;;;;;5069673;28;20457;-74
2023/05/05 12:21:18;;;;;;;10.30;9.80;;;20.40;26.40;;;;;;5070636;28;20438;-76
2023/05/05 12:23:43;;;;;;;10.80;10.30;;;20.40;26.10;;;;;;5070085;28;20428;-75
2023/05/05 12:26:28;;;;;;;10.10;9.67;;;20.40;26.10;;;;;;5071729;28;20413;-77
2023/05/05 12:28:55;;;;;;;10.40;10.00;;;20.40;26.10;;;;;;5054182;28;20640;-75
2023/05/05 12:31:21;;;;;;;10.10;9.70;;;20.40;26.40;;;;;;5071537;28;20425;-76
2023/05/05 12:33:47;;;;;;;9.60;9.00;;;20.40;25.50;;;;;;5072033;28;20463;-76
2023/05/05 12:36:14;;;;;;;10.67;9.83;;;20.40;25.80;;;;;;5053805;28;20175;-75
2023/05/05 12:38:40;;;;;;;11.03;10.07;;;20.40;25.40;;;;;;5072613;28;20449;-74